Terminal Aerodrome Forecast
Issued by NWS Sioux Falls, SD

Home | Current Version | Previous Version | Text Only | Print | Product List | Glossary On
Versions: 1 2 3 4 5 6 7 8 9 10 11 12
754
FTUS43 KFSD 281720
TAFHON
TAF
KHON 281720Z 2818/2918 31020G28KT P6SM SCT060
     FM282300 32019G27KT P6SM VCTS BKN060CB
     FM290200 33008KT P6SM SCT060
     FM291200 31010KT P6SM FEW120
     FM291500 32014G22KT P6SM SCT060=

USA.gov is the U.S. government's official web portal to all federal, state and local government web resources and services.